首页
METAR-TAF:

METAR-TAF

机场 :

開羅國際機場

开罗, 埃及

纬度: 30-08N, 经度: 031-24E, 海拔: 64米

当前天气观测

该预报发布于33分钟前的09:00 UTC
风速5节,风向北转西北
温度 21°C
湿度 53%
气压 1012 hPa
能见度10公里或以上
散云层高于2500英尺

METAR: HECA 140900Z 33005KT 9999 SCT025 21/11 Q1012 NOSIG

时间: 11:33 (09:33 UTC)

预报

该预报发布于4小时和33分钟前的05:00 UTC
预报有效从14日的 06点(UTC)到 15日的 12点(UTC)
风速8节,风向西北
能见度10公里或以上
散云层高于2500英尺
多云层高于7000英尺
短暂存在
从 14日的 08点(UTC)到 14日的 20点(UTC)
能見度: 6000
多云层高于2000英尺, 积雨云.
短暂存在
从 15日的 00点(UTC)到 15日的 08点(UTC)
风速3节,风向多变
能見度: 4000
轻雾

TAF: HECA 140500Z 1406/1512 32008KT 9999 SCT025 BKN070 TEMPO 1408/1420 6000 TSSHRA BKN020CB TEMPO 1500/1508 VRB03KT 4000 BR NSC

超过4000个机场的气象观测和天气预报(METAR&TAF报告)。

可查询的气象台以黄色和红色小点在地图上表示。

将鼠标移到小点上方,可查看气象台名称。

然后点击查看天气观测和预报。

如需切换地图:点击带黑十字的绿色按钮放大地图;点击带横线的绿色按钮缩小地图;或者点击绿色箭头查看邻近地区的地图。


METAR-TAF: